Time;durP1;ratioP1;P1;durP2;ratioP2;P2;SDS_P1;SDS_P2;PMS_P1;PMS_P2;Temp;Humidity;BMP_temperature;BMP_pressure;BME280_temperature;BME280_humidity;BME280_pressure;Samples;Min_cycle;Max_cycle;Signal;HPM_P1;HPM_P2
2023/02/10 13:13:30;;;;;;;27.55;8.25;;;;;;;2.42;46.06;101574.23;1771117;77;942874;-72
2023/02/10 14:53:19;;;;;;;33.88;10.58;;;;;;;1.28;49.74;101572.70;1773459;75;21441;-69
2023/02/10 14:55:55;;;;;;;126.00;16.60;;;;;;;1.24;49.93;101569.84;1729550;82;21643;-67
2023/02/10 14:58:34;;;;;;;27.73;10.63;;;;;;;1.21;49.97;101554.34;1697019;82;21111;-69
2023/02/10 15:01:24;;;;;;;37.13;10.72;;;;;;;1.18;50.12;101555.91;1676924;85;21164;-67
2023/02/10 15:04:04;;;;;;;27.73;11.00;;;;;;;1.11;50.50;101564.93;1718638;82;21178;-67
2023/02/10 15:06:35;;;;;;;27.70;10.23;;;;;;;1.05;50.65;101567.20;1716222;81;21566;-66
2023/02/10 15:09:19;;;;;;;47.53;11.38;;;;;;;1.01;50.87;101557.59;1727208;83;21117;-67
2023/02/10 15:12:13;;;;;;;27.15;10.45;;;;;;;1.01;51.05;101565.69;1829506;77;22557;-67
2023/02/10 15:15:27;;;;;;;;;;;;;;;0.91;51.14;101565.47;1790885;80;21205;-65
2023/02/10 15:18:12;;;;;;;29.42;9.65;;;;;;;0.86;51.37;101575.72;1788312;79;20145;-67
2023/02/10 15:21:04;;;;;;;28.65;10.15;;;;;;;0.78;51.51;101566.81;1788248;80;21102;-67
2023/02/10 15:26:39;;;;;;;42.98;10.63;;;;;;;0.66;51.75;101578.45;1788550;79;21104;-65
2023/02/10 15:29:13;;;;;;;24.23;10.65;;;;;;;0.62;52.40;101594.42;1787844;80;21111;-66
2023/02/10 15:31:45;;;;;;;29.23;10.60;;;;;;;0.61;52.42;101597.61;1780231;79;21614;-67
2023/02/10 15:34:24;;;;;;;22.98;10.75;;;;;;;0.56;52.42;101600.23;1756900;82;21111;-66
2023/02/10 15:37:02;;;;;;;27.17;10.58;;;;;;;0.57;53.30;101607.36;1757000;82;21150;-66
2023/02/10 15:39:36;;;;;;;27.67;10.82;;;;;;;0.55;52.92;101605.25;1757095;82;21154;-65
2023/02/10 15:42:27;;;;;;;24.07;10.60;;;;;;;0.50;52.77;101607.39;1762612;80;21150;-69
2023/02/10 15:45:21;;;;;;;69.00;15.55;;;;;;;0.45;52.97;101607.70;1787024;80;21122;-66
2023/02/10 15:48:05;;;;;;;41.33;11.20;;;;;;;0.40;53.19;101605.80;1776353;80;21573;-68
2023/02/10 15:50:35;;;;;;;26.95;9.18;;;;;;;0.37;53.38;101615.45;1778523;79;21142;-68
2023/02/10 15:53:09;;;;;;;22.58;9.90;;;;;;;0.61;62.08;101611.09;1788076;80;21546;-68
2023/02/10 15:55:40;;;;;;;27.50;11.93;;;;;;;1.22;62.90;101610.06;1784599;79;21138;-64
2023/02/10 15:58:12;;;;;;;44.90;16.25;;;;;;;1.48;57.50;101607.77;1757603;81;21653;-65
2023/02/10 16:00:46;;;;;;;26.55;11.68;;;;;;;1.36;55.40;101606.42;1757120;81;22133;-64
2023/02/10 16:03:21;;;;;;;30.60;12.45;;;;;;;1.15;54.48;101606.06;1758978;82;21119;-65
2023/02/10 16:05:59;;;;;;;25.02;10.55;;;;;;;0.98;54.25;101615.83;1785932;80;21142;-65
2023/02/10 16:08:25;;;;;;;26.68;11.12;;;;;;;0.82;54.07;101609.28;1761111;80;21178;-64
2023/02/10 16:10:58;;;;;;;23.25;11.10;;;;;;;0.67;53.98;101612.55;1746222;80;21105;-67
2023/02/10 16:13:30;;;;;;;26.93;11.18;;;;;;;0.53;54.22;101621.53;1755792;80;21124;-68
2023/02/10 16:16:00;;;;;;;56.10;12.78;;;;;;;0.41;54.36;101620.14;1755331;81;21086;-68
2023/02/10 16:18:31;;;;;;;28.92;10.95;;;;;;;0.29;54.75;101613.26;1755498;82;21561;-67
2023/02/10 16:21:06;;;;;;;28.85;10.30;;;;;;;0.22;54.92;101625.41;1754990;82;21089;-68
2023/02/10 16:23:49;;;;;;;17.55;8.10;;;;;;;0.15;55.16;101618.70;1712529;82;21255;-67
2023/02/10 16:26:24;;;;;;;20.77;10.28;;;;;;;0.10;55.37;101622.18;1751854;80;21145;-67
2023/02/10 16:28:53;;;;;;;23.30;10.58;;;;;;;0.04;55.43;101626.63;1751727;80;21116;-69
2023/02/10 16:31:25;;;;;;;23.30;10.23;;;;;;;0.00;55.63;101630.48;1671480;84;21197;-67
2023/02/10 16:33:55;;;;;;;24.32;10.55;;;;;;;-0.07;55.83;101620.55;1671316;84;21174;-66
2023/02/10 16:36:24;;;;;;;28.85;11.78;;;;;;;-0.10;56.83;101618.54;1671344;84;21571;-65
2023/02/10 16:38:56;;;;;;;26.23;11.43;;;;;;;-0.10;56.65;101621.23;1671315;86;21260;-63
2023/02/10 16:41:27;;;;;;;26.60;11.38;;;;;;;-0.13;56.63;101622.30;1671183;84;21209;-65
2023/02/10 16:43:56;;;;;;;57.50;12.68;;;;;;;-0.14;56.64;101618.36;1671524;86;21247;-65
2023/02/10 16:46:27;;;;;;;30.20;11.70;;;;;;;-0.19;56.79;101621.83;1648557;84;22482;-63
2023/02/10 16:48:56;;;;;;;28.42;10.72;;;;;;;-0.22;56.89;101624.72;1653466;85;21272;-65
2023/02/10 16:51:27;;;;;;;31.45;11.25;;;;;;;-0.24;56.99;101628.00;1683436;84;21554;-64
2023/02/10 16:53:57;;;;;;;25.48;11.25;;;;;;;-0.28;57.13;101625.98;1671363;84;21217;-65
2023/02/10 16:56:27;;;;;;;30.55;11.22;;;;;;;-0.32;57.24;101627.14;1739099;80;21163;-65
2023/02/10 16:58:57;;;;;;;27.65;11.33;;;;;;;-0.35;57.40;101632.72;1777330;79;21138;-62
2023/02/10 17:01:28;;;;;;;123.25;17.35;;;;;;;-0.37;57.55;101632.82;1747257;81;21158;-66
2023/02/10 17:03:58;;;;;;;29.48;12.37;;;;;;;-0.39;57.76;101628.02;1734704;81;21146;-64
2023/02/10 17:06:27;;;;;;;26.93;12.63;;;;;;;-0.40;57.79;101628.97;1682007;84;21616;-64
2023/02/10 17:08:57;;;;;;;32.10;12.80;;;;;;;-0.42;57.89;101630.03;1734522;82;21134;-65
2023/02/10 17:11:26;;;;;;;30.77;12.37;;;;;;;-0.44;58.02;101631.48;1748770;81;21210;-65
2023/02/10 17:13:56;;;;;;;28.67;12.53;;;;;;;-0.45;58.09;101641.86;1759516;81;21545;-63
2023/02/10 17:16:34;;;;;;;28.60;11.73;;;;;;;-0.45;58.23;101636.48;1759322;81;21554;-64
2023/02/10 17:19:04;;;;;;;21.45;9.45;;;;;;;-0.46;58.25;101641.48;1759606;81;21142;-65
2023/02/10 17:21:33;;;;;;;33.98;12.58;;;;;;;-0.47;58.31;101645.13;1759371;81;21549;-64
2023/02/10 17:24:04;;;;;;;42.80;11.73;;;;;;;-0.47;58.45;101645.13;1759201;81;21150;-65
2023/02/10 17:26:33;;;;;;;25.23;11.30;;;;;;;-0.46;58.52;101660.33;1678108;85;21130;-65
2023/02/10 17:29:02;;;;;;;29.52;12.30;;;;;;;-0.45;58.62;101659.36;1678331;85;21138;-65
2023/02/10 17:31:31;;;;;;;41.53;11.35;;;;;;;-0.43;58.57;101652.05;1678105;85;21150;-64
2023/02/10 17:34:02;;;;;;;33.13;11.43;;;;;;;-0.44;58.63;101648.11;1678116;85;21200;-64
2023/02/10 17:36:33;;;;;;;26.48;11.00;;;;;;;-0.46;58.80;101649.55;1678176;84;21664;-64
2023/02/10 17:39:07;;;;;;;28.12;10.93;;;;;;;-0.46;58.81;101654.08;1678283;85;22089;-65
2023/02/10 17:41:36;;;;;;;48.35;12.75;;;;;;;-0.47;58.80;101655.90;1678282;85;21102;-65
2023/02/10 17:44:06;;;;;;;22.75;11.03;;;;;;;-0.49;58.87;101653.79;1698298;81;21706;-64
2023/02/10 17:46:35;;;;;;;24.82;10.63;;;;;;;-0.49;58.90;101655.13;1759163;81;21549;-63
2023/02/10 17:49:05;;;;;;;23.10;10.63;;;;;;;-0.49;58.87;101655.61;1759198;81;21613;-66
2023/02/10 17:51:34;;;;;;;29.75;11.20;;;;;;;-0.49;58.90;101643.50;1759238;81;21198;-65
2023/02/10 17:54:04;;;;;;;23.57;10.40;;;;;;;-0.48;58.92;101652.83;1759281;80;21146;-65
2023/02/10 17:56:34;;;;;;;28.92;11.78;;;;;;;-0.50;58.96;101654.75;1759566;81;21625;-65
2023/02/10 17:59:04;;;;;;;30.30;11.08;;;;;;;-0.53;59.03;101648.69;1716680;81;21114;-64
2023/02/10 18:01:34;;;;;;;29.82;11.55;;;;;;;-0.58;59.14;101656.19;1759183;80;21141;-64
2023/02/10 18:04:03;;;;;;;29.77;11.65;;;;;;;-0.58;59.16;101654.36;1759298;80;21138;-64
2023/02/10 18:06:33;;;;;;;27.10;12.33;;;;;;;-0.57;59.25;101657.44;1759389;80;21118;-64
2023/02/10 18:09:03;;;;;;;25.20;11.28;;;;;;;-0.58;59.35;101654.84;1759516;80;21110;-64
2023/02/10 18:11:32;;;;;;;26.93;11.20;;;;;;;-0.60;59.42;101656.77;1739412;81;21091;-66
2023/02/10 18:14:02;;;;;;;29.25;11.65;;;;;;;-0.65;59.56;101655.22;1762651;81;21090;-64
2023/02/10 18:16:31;;;;;;;29.67;11.22;;;;;;;-0.67;59.65;101656.25;1762430;81;21525;-65
2023/02/10 18:19:01;;;;;;;46.33;12.33;;;;;;;-0.69;59.79;101656.82;1762469;81;21177;-64
2023/02/10 18:21:32;;;;;;;27.55;12.28;;;;;;;-0.67;59.92;101654.90;1762555;80;21083;-65
2023/02/10 18:24:01;;;;;;;31.15;11.63;;;;;;;-0.66;59.95;101652.59;1762448;81;21086;-66
2023/02/10 18:26:32;;;;;;;25.75;11.80;;;;;;;-0.67;60.05;101653.08;1762422;80;21193;-64
2023/02/10 18:29:01;;;;;;;43.28;12.35;;;;;;;-0.67;60.12;101650.38;1762485;81;21110;-62
2023/02/10 18:31:30;;;;;;;29.32;11.68;;;;;;;-0.68;60.24;101641.06;1762493;81;21563;-64
2023/02/10 18:34:00;;;;;;;26.87;11.25;;;;;;;-0.70;60.28;101651.05;1762568;80;21198;-64
2023/02/10 18:36:31;;;;;;;29.42;11.38;;;;;;;-0.71;60.33;101650.67;1762529;81;21584;-63
2023/02/10 18:39:01;;;;;;;30.70;12.40;;;;;;;-0.73;60.38;101637.78;1762583;80;21498;-64
2023/02/10 18:41:34;;;;;;;29.98;12.28;;;;;;;-0.73;60.37;101645.86;1737960;81;21095;-65
2023/02/10 18:44:05;;;;;;;32.88;12.93;;;;;;;-0.72;60.44;101644.42;1762505;81;21561;-64
2023/02/10 18:46:36;;;;;;;32.23;12.23;;;;;;;-0.73;60.54;101652.11;1702041;84;21252;-64
2023/02/10 18:49:05;;;;;;;30.52;11.75;;;;;;;-0.74;60.60;101657.59;1702084;84;21222;-65
2023/02/10 18:51:36;;;;;;;24.70;11.18;;;;;;;-0.75;60.69;101653.16;1679365;84;21658;-65
2023/02/10 18:54:06;;;;;;;25.88;11.55;;;;;;;-0.76;60.88;101659.50;1702130;84;21554;-65
2023/02/10 18:56:36;;;;;;;27.95;11.55;;;;;;;-0.76;61.01;101660.85;1702310;84;21279;-65
2023/02/10 18:59:05;;;;;;;29.48;11.55;;;;;;;-0.77;61.17;101658.64;1702219;84;21166;-63
2023/02/10 19:01:35;;;;;;;29.45;12.15;;;;;;;-0.75;61.32;101651.34;1701967;84;21138;-65
2023/02/10 19:04:04;;;;;;;26.52;10.45;;;;;;;-0.73;61.38;101658.84;1714856;81;21308;-65
2023/02/10 19:06:33;;;;;;;24.80;11.30;;;;;;;-0.69;61.48;101656.82;1762726;80;21150;-64
2023/02/10 19:09:02;;;;;;;31.55;12.30;;;;;;;-0.66;61.50;101653.94;1762725;80;21142;-64
2023/02/10 19:11:32;;;;;;;36.20;12.13;;;;;;;-0.60;61.65;101655.42;1761260;80;21139;-64
2023/02/10 19:14:01;;;;;;;30.32;11.30;;;;;;;-0.60;61.72;101646.00;1759176;80;21115;-65
2023/02/10 19:16:31;;;;;;;31.40;11.60;;;;;;;-0.55;61.83;101639.36;1759234;81;21217;-64
2023/02/10 19:19:01;;;;;;;39.75;12.63;;;;;;;-0.53;61.87;101636.09;1740464;81;21212;-64
2023/02/10 19:21:30;;;;;;;25.95;10.72;;;;;;;-0.47;61.91;101631.67;1759177;81;21630;-65
2023/02/10 19:24:00;;;;;;;38.55;11.85;;;;;;;-0.44;61.89;101636.86;1759456;81;21111;-64
2023/02/10 19:26:29;;;;;;;24.98;11.57;;;;;;;-0.42;61.92;101638.98;1759365;81;21090;-66
2023/02/10 19:29:01;;;;;;;24.95;11.43;;;;;;;-0.40;61.93;101642.44;1759443;81;21122;-65
2023/02/10 19:31:29;;;;;;;26.00;10.75;;;;;;;-0.40;61.90;101637.05;1759367;81;21162;-65
2023/02/10 19:33:59;;;;;;;23.62;11.93;;;;;;;-0.39;61.98;101635.22;1759535;80;21162;-65
2023/02/10 19:36:29;;;;;;;31.25;12.43;;;;;;;-0.38;61.99;101635.61;1759604;81;21114;-64
2023/02/10 19:38:59;;;;;;;35.35;13.60;;;;;;;-0.38;62.08;101635.12;1759697;80;21138;-65
2023/02/10 19:41:29;;;;;;;27.62;12.05;;;;;;;-0.36;62.18;101639.94;1759531;80;21099;-63
2023/02/10 19:43:59;;;;;;;29.23;11.53;;;;;;;-0.32;62.22;101644.64;1762155;81;21102;-64
2023/02/10 19:46:29;;;;;;;24.90;11.60;;;;;;;-0.30;62.28;101649.45;1762464;80;21149;-65
2023/02/10 19:48:58;;;;;;;25.68;11.70;;;;;;;-0.28;62.36;101648.88;1743213;81;21130;-67
2023/02/10 19:51:27;;;;;;;26.57;12.78;;;;;;;-0.26;62.36;101656.86;1762211;80;21190;-64
2023/02/10 19:53:56;;;;;;;31.45;12.13;;;;;;;-0.25;62.42;101659.45;1761086;81;21150;-64
2023/02/10 19:56:24;;;;;;;26.55;11.63;;;;;;;-0.23;62.46;101652.14;1760144;80;21146;-65
2023/02/10 19:58:54;;;;;;;28.75;11.88;;;;;;;-0.20;62.52;101651.08;1759677;80;21082;-65
2023/02/10 20:01:24;;;;;;;26.30;12.20;;;;;;;-0.19;62.54;101648.77;1759780;81;21118;-66
2023/02/10 20:03:55;;;;;;;32.90;12.23;;;;;;;-0.17;62.59;101655.78;1759755;81;21196;-66
2023/02/10 20:06:28;;;;;;;22.95;10.95;;;;;;;-0.15;62.58;101663.77;1759459;80;21122;-65
2023/02/10 20:08:57;;;;;;;27.67;12.43;;;;;;;-0.13;62.61;101656.45;1759444;81;21154;-65
2023/02/10 20:11:25;;;;;;;30.77;11.43;;;;;;;-0.14;62.59;101647.51;1761571;81;21162;-66
2023/02/10 20:13:56;;;;;;;28.65;12.43;;;;;;;-0.13;62.74;101657.32;1770424;81;21596;-66
2023/02/10 20:16:26;;;;;;;27.75;12.03;;;;;;;-0.11;62.81;101658.57;1770495;81;21146;-65
2023/02/10 20:18:55;;;;;;;28.32;11.80;;;;;;;-0.13;62.86;101655.97;1770522;81;21201;-66
2023/02/10 20:21:25;;;;;;;25.82;12.63;;;;;;;-0.12;62.93;101663.57;1770691;81;21154;-65
2023/02/10 20:23:54;;;;;;;28.02;12.47;;;;;;;-0.13;63.06;101669.44;1744717;81;21133;-66
2023/02/10 20:26:23;;;;;;;28.02;12.20;;;;;;;-0.14;63.17;101666.36;1745001;81;21110;-65
2023/02/10 20:28:52;;;;;;;27.93;11.40;;;;;;;-0.14;63.26;101664.16;1770420;81;21548;-65
2023/02/10 20:31:21;;;;;;;28.65;12.15;;;;;;;-0.13;63.38;101660.50;1770296;81;21579;-65
2023/02/10 20:33:51;;;;;;;25.97;12.30;;;;;;;-0.14;63.42;101663.67;1770664;80;21138;-65
2023/02/10 20:36:20;;;;;;;33.33;12.70;;;;;;;-0.15;63.57;101670.50;1770530;80;21082;-65
2023/02/10 20:38:49;;;;;;;27.37;12.85;;;;;;;-0.13;63.67;101672.61;1770659;81;21134;-65
2023/02/10 20:41:19;;;;;;;27.10;12.25;;;;;;;-0.12;63.68;101677.04;1770351;79;21142;-64
2023/02/10 20:43:49;;;;;;;28.60;12.75;;;;;;;-0.11;63.75;101677.42;1770496;80;21517;-64
2023/02/10 20:46:18;;;;;;;24.15;11.50;;;;;;;-0.11;63.89;101676.08;1770416;81;21157;-65
2023/02/10 20:48:48;;;;;;;29.30;12.93;;;;;;;-0.11;63.91;101682.81;1770481;81;21589;-66
2023/02/10 20:51:17;;;;;;;25.17;12.70;;;;;;;-0.12;64.00;101686.47;1770323;79;21189;-65
2023/02/10 20:53:50;;;;;;;28.07;12.55;;;;;;;-0.12;64.30;101683.77;1770363;81;21628;-65
2023/02/10 20:56:18;;;;;;;29.85;13.13;;;;;;;-0.12;64.37;101686.47;1770523;79;21556;-65
2023/02/10 20:58:47;;;;;;;28.50;12.53;;;;;;;-0.10;64.44;101692.62;1770344;81;21110;-64
2023/02/10 21:01:16;;;;;;;25.95;13.05;;;;;;;-0.09;64.40;101689.83;1770297;81;21124;-65
2023/02/10 21:03:46;;;;;;;30.75;13.48;;;;;;;-0.08;64.40;101688.00;1770258;81;21090;-64
2023/02/10 21:06:19;;;;;;;26.70;12.18;;;;;;;-0.10;64.40;101690.80;1770432;81;21115;-62
2023/02/10 21:08:49;;;;;;;26.62;12.20;;;;;;;-0.10;64.54;101692.62;1770551;81;21086;-65
2023/02/10 21:11:22;;;;;;;27.37;12.70;;;;;;;-0.10;64.61;101692.62;1769942;81;21545;-65
2023/02/10 21:13:52;;;;;;;25.68;12.13;;;;;;;-0.12;64.70;101695.41;1759277;81;21146;-64
2023/02/10 21:16:21;;;;;;;32.00;11.60;;;;;;;-0.11;64.76;101689.55;1759378;81;21571;-66
2023/02/10 21:18:51;;;;;;;26.50;12.10;;;;;;;-0.11;64.83;101688.20;1759162;81;21130;-63
2023/02/10 21:21:20;;;;;;;29.10;12.47;;;;;;;-0.12;64.90;101683.77;1704187;81;21094;-63
2023/02/10 21:23:50;;;;;;;28.32;12.85;;;;;;;-0.14;64.98;101674.92;1759290;81;21154;-63
2023/02/10 21:26:19;;;;;;;27.37;13.32;;;;;;;-0.16;65.10;101684.45;1759486;80;21178;-65
2023/02/10 21:28:50;;;;;;;27.95;12.18;;;;;;;-0.18;65.25;101685.52;1759309;81;21130;-64
2023/02/10 21:31:22;;;;;;;33.58;12.30;;;;;;;-0.19;65.35;101686.47;1759254;81;21111;-65
2023/02/10 21:33:51;;;;;;;26.87;12.70;;;;;;;-0.21;65.45;101681.19;1759230;81;21154;-65
2023/02/10 21:36:25;;;;;;;29.65;12.70;;;;;;;-0.21;65.51;101681.66;1759281;80;21130;-66
2023/02/10 21:38:55;;;;;;;29.48;12.93;;;;;;;-0.20;65.60;101687.44;1759253;80;21107;-64
2023/02/10 21:41:38;;;;;;;28.38;13.08;;;;;;;-0.19;65.70;101689.17;1759200;80;21170;-65
2023/02/10 21:44:19;;;;;;;29.90;13.22;;;;;;;-0.17;65.85;101692.62;1759356;81;21142;-65
2023/02/10 21:46:55;;;;;;;33.92;13.95;;;;;;;-0.17;65.92;101693.50;1759301;81;21189;-64
2023/02/10 21:49:26;;;;;;;30.72;13.60;;;;;;;-0.16;65.92;101695.70;1759323;81;21099;-65
2023/02/10 21:51:55;;;;;;;29.60;12.73;;;;;;;-0.14;65.99;101691.09;1759613;80;21170;-66
2023/02/10 21:54:27;;;;;;;27.52;13.80;;;;;;;-0.12;66.10;101690.51;1759567;81;21138;-65
2023/02/10 21:56:56;;;;;;;33.95;14.90;;;;;;;-0.10;66.11;101697.53;1759466;81;21612;-65
2023/02/10 21:59:25;;;;;;;32.53;13.80;;;;;;;-0.09;66.13;101690.31;1740365;81;21182;-65
